Portada
METAR-TAF:

METAR-TAF

Aeroports :

Davao, Filipines

latitud: 07-07N, longitud: 125-39E, altitud: 17 m

Observació

L'informe es va fer fa 1 hora i 9 minuts, a les 01:00 UTC
Vent 6 kt del Nord-Est, variant entre Nord i Est
Temperatura 31°C
Humitat 71%
Pressió 1013 hPa
Visibilitat 10 km o més
Núvols disperses a una alçada de 1600 ft

METAR: RPMD 270100Z 05006KT 010V090 9999 SCT016 31/25 Q1013 RMK A2991

Hora: 10:09 (02:09 UTC)

Pronòstic

L'informe es va fer fa 3 hores i 9 minuts, a les 23:00 UTC
Pronòstic vàlid del 27 a les 00 UTC al 27 a les 24 UTC
Vent 6 kt del Sud
Visibilitat 10 km o més
Escasses núvols a una alçada de 1600 ft
Núvols disperses a una alçada de 29000 ft
Temporalment
l' 27 a les 00 UTC al 27 a les 06 UTC
Vent 12 kt del Nord-Est
Escasses núvols a una alçada de 1500 ft, Cumulonimbus.
Cel ennuvolat a una alçada de 9000 ft
Cel ennuvolat a una alçada de 26000 ft

TAF: RPMD 262300Z 2700/2724 18006KT 9999 FEW016 SCT290 TEMPO 2700/2706 04012KT FEW015CB BKN090 BKN260

Observacions i pronòstics meteorològics de més de 4000 aeroports (METAR i TAF).

Les estacions disponibles són els punts grocs i vermells al mapa.

Posi el ratolí al punt desitjat per veure el nom de l'estació.

Feu clic per veure les observacions i els pronòstics meteorològics.

Per canviar el mapa: feu clic els botons verds amb una creu de color negre per apropar; al botó verd amb un guió per allunyar la imatge; o en les fletxes verdes per a mapes adjacents.


METAR-TAF: